createdAt,value
2022-07-28T00:01:18.814Z,4.80
2022-07-28T00:03:48.820Z,5.15
2022-07-28T00:06:16.395Z,5.00
2022-07-28T00:08:43.686Z,4.90
2022-07-28T00:11:11.008Z,5.07
2022-07-28T00:13:38.288Z,4.90
2022-07-28T00:16:07.099Z,5.07
2022-07-28T00:18:34.554Z,4.72
2022-07-28T00:21:02.294Z,5.28
2022-07-28T00:23:38.624Z,5.07
2022-07-28T00:26:08.397Z,5.30
2022-07-28T00:28:36.348Z,5.68
2022-07-28T00:31:06.458Z,5.85
2022-07-28T00:33:36.847Z,5.70
2022-07-28T00:36:04.452Z,5.70
2022-07-28T00:38:34.462Z,5.65
2022-07-28T00:41:11.563Z,5.65
2022-07-28T00:43:45.943Z,5.35
2022-07-28T00:46:15.254Z,5.53
2022-07-28T00:48:52.995Z,5.45
2022-07-28T00:51:21.473Z,5.60
2022-07-28T00:53:48.808Z,5.57
2022-07-28T00:56:16.067Z,6.40
2022-07-28T00:58:43.326Z,5.75
2022-07-28T01:01:11.344Z,5.90
2022-07-28T01:03:40.716Z,6.13
2022-07-28T01:06:41.855Z,5.70
2022-07-28T01:09:30.649Z,5.93
2022-07-28T01:12:19.561Z,6.00
2022-07-28T01:15:11.691Z,6.05
2022-07-28T01:18:12.667Z,6.38
2022-07-28T01:21:11.754Z,5.82
2022-07-28T01:24:09.983Z,6.47
2022-07-28T01:26:48.545Z,6.63
2022-07-28T01:29:18.852Z,7.15
2022-07-28T01:31:54.209Z,6.05
2022-07-28T01:34:27.443Z,6.60
2022-07-28T01:36:59.759Z,7.47
2022-07-28T01:39:29.093Z,7.40
2022-07-28T01:41:56.522Z,7.60
2022-07-28T01:44:25.177Z,7.35
2022-07-28T01:46:52.993Z,7.07
2022-07-28T01:49:21.279Z,7.32
2022-07-28T01:51:48.630Z,7.30
2022-07-28T01:54:16.256Z,7.55
2022-07-28T01:56:43.864Z,7.38
2022-07-28T01:59:12.127Z,8.20
2022-07-28T02:01:43.174Z,8.40
2022-07-28T02:04:11.181Z,7.10
2022-07-28T02:06:38.975Z,7.80
2022-07-28T02:09:06.689Z,7.13
2022-07-28T02:11:43.049Z,7.47
2022-07-28T02:14:15.462Z,8.05
2022-07-28T02:16:48.736Z,8.43
2022-07-28T02:19:17.489Z,8.25
2022-07-28T02:21:47.587Z,8.20
2022-07-28T02:24:15.262Z,8.20
2022-07-28T02:27:12.572Z,8.25
2022-07-28T02:29:51.175Z,7.85
2022-07-28T02:32:27.957Z,8.80
2022-07-28T02:35:17.655Z,8.57
2022-07-28T02:37:50.294Z,8.00
2022-07-28T02:40:17.597Z,8.65
2022-07-28T02:42:46.835Z,8.93
2022-07-28T02:45:16.030Z,8.73
2022-07-28T02:47:46.725Z,9.40
2022-07-28T02:50:14.757Z,8.80
2022-07-28T02:52:42.514Z,8.30
2022-07-28T02:55:10.859Z,8.95
2022-07-28T02:57:39.435Z,8.25
2022-07-28T03:00:07.236Z,8.32
2022-07-28T03:02:36.646Z,8.88
2022-07-28T03:05:08.678Z,8.30
2022-07-28T03:07:46.505Z,8.63
2022-07-28T03:10:34.300Z,8.43
2022-07-28T03:13:03.214Z,8.60
2022-07-28T03:15:31.134Z,8.73
2022-07-28T03:17:59.672Z,8.70
2022-07-28T03:20:27.076Z,8.13
2022-07-28T03:22:55.290Z,9.18
2022-07-28T03:25:43.320Z,8.70
2022-07-28T03:28:15.003Z,8.90
2022-07-28T03:30:43.205Z,8.93
2022-07-28T03:33:10.535Z,8.20
2022-07-28T03:35:39.717Z,8.63
2022-07-28T03:38:08.225Z,8.73
2022-07-28T03:40:36.698Z,8.60
2022-07-28T03:43:06.391Z,8.52
2022-07-28T03:45:34.492Z,8.68
2022-07-28T03:48:01.842Z,8.70
2022-07-28T03:50:30.184Z,8.88
2022-07-28T03:52:58.290Z,8.93
2022-07-28T03:55:26.196Z,8.35
2022-07-28T03:57:53.420Z,9.32
2022-07-28T04:00:20.766Z,9.00
2022-07-28T04:02:48.119Z,8.85
2022-07-28T04:05:16.778Z,8.45
2022-07-28T04:07:44.452Z,8.60
2022-07-28T04:10:13.158Z,8.05
2022-07-28T04:12:51.799Z,9.00
2022-07-28T04:15:19.818Z,8.35
2022-07-28T04:17:48.688Z,8.68
2022-07-28T04:20:16.796Z,8.82
2022-07-28T04:22:44.843Z,9.23
2022-07-28T04:25:14.894Z,8.63
2022-07-28T04:27:42.430Z,9.07
2022-07-28T04:30:14.446Z,8.60
2022-07-28T04:32:41.917Z,7.75
2022-07-28T04:35:11.207Z,8.50
2022-07-28T04:37:41.729Z,8.13
2022-07-28T04:40:10.160Z,8.27
2022-07-28T04:42:38.492Z,8.30
2022-07-28T04:45:07.061Z,7.85
2022-07-28T04:47:34.457Z,8.30
2022-07-28T04:50:01.856Z,8.10
2022-07-28T04:52:29.256Z,8.00
2022-07-28T04:54:56.631Z,7.93
2022-07-28T04:57:23.855Z,8.43
2022-07-28T04:59:54.277Z,7.53
2022-07-28T05:02:24.321Z,8.00
2022-07-28T05:04:51.687Z,7.80
2022-07-28T05:07:18.991Z,7.85
2022-07-28T05:09:46.306Z,8.10
2022-07-28T05:12:13.560Z,7.63
2022-07-28T05:14:40.884Z,7.60
2022-07-28T05:17:08.124Z,7.35
2022-07-28T05:19:37.024Z,9.27
2022-07-28T05:22:04.399Z,7.57
2022-07-28T05:24:31.922Z,7.63
2022-07-28T05:26:59.163Z,7.38
2022-07-28T05:29:26.450Z,7.22
2022-07-28T05:32:16.184Z,7.85
2022-07-28T05:34:47.582Z,7.72
2022-07-28T05:37:14.815Z,7.85
2022-07-28T05:39:42.082Z,8.00
2022-07-28T05:42:09.290Z,6.95
2022-07-28T05:44:38.495Z,7.43
2022-07-28T05:47:06.380Z,8.55
2022-07-28T05:49:33.847Z,7.60
2022-07-28T05:52:01.102Z,7.78
2022-07-28T05:54:28.337Z,7.00
2022-07-28T05:56:55.614Z,7.18
2022-07-28T05:59:22.828Z,6.70
2022-07-28T06:01:50.252Z,7.30
2022-07-28T06:04:27.734Z,6.32
2022-07-28T06:06:55.867Z,7.40
2022-07-28T06:09:23.123Z,7.85
2022-07-28T06:11:50.783Z,7.10
2022-07-28T06:14:19.084Z,6.57
2022-07-28T06:16:51.090Z,6.78
2022-07-28T06:19:19.261Z,6.47
2022-07-28T06:21:47.562Z,6.88
2022-07-28T06:24:15.349Z,6.30
2022-07-28T06:26:44.898Z,6.38
2022-07-28T06:29:12.656Z,7.22
2022-07-28T06:31:40.191Z,6.43
2022-07-28T06:34:07.490Z,5.70
2022-07-28T06:36:34.700Z,5.65
2022-07-28T06:39:02.329Z,5.90
2022-07-28T06:41:29.557Z,6.57
2022-07-28T06:43:56.775Z,6.72
2022-07-28T06:46:24.051Z,6.05
2022-07-28T06:48:51.333Z,6.10
2022-07-28T06:51:19.918Z,6.18
2022-07-28T06:53:48.460Z,5.35
2022-07-28T06:56:16.276Z,6.55
2022-07-28T06:58:46.936Z,5.47
2022-07-28T07:01:17.875Z,6.10
2022-07-28T07:03:45.215Z,5.40
2022-07-28T07:06:12.475Z,6.07
2022-07-28T07:08:39.748Z,5.47
2022-07-28T07:11:07.016Z,6.97
2022-07-28T07:13:34.326Z,6.00
2022-07-28T07:16:01.695Z,6.22
2022-07-28T07:18:29.059Z,6.03
2022-07-28T07:20:59.121Z,6.30
2022-07-28T07:23:26.458Z,5.93
2022-07-28T07:25:53.788Z,5.40
2022-07-28T07:28:21.076Z,6.00
2022-07-28T07:30:48.474Z,5.65
2022-07-28T07:33:15.727Z,6.30
2022-07-28T07:35:43.075Z,5.40
2022-07-28T07:38:10.361Z,5.70
2022-07-28T07:40:38.105Z,5.22
2022-07-28T07:43:05.512Z,5.38
2022-07-28T07:45:34.345Z,5.38
2022-07-28T07:48:02.662Z,4.97
2022-07-28T07:50:30.060Z,5.43
2022-07-28T07:52:57.364Z,5.55
2022-07-28T07:55:24.636Z,4.68
2022-07-28T07:57:51.858Z,4.70
2022-07-28T08:00:28.635Z,5.10
2022-07-28T08:02:57.783Z,4.93
2022-07-28T08:05:35.000Z,5.13
2022-07-28T08:08:04.872Z,4.75
2022-07-28T08:10:33.040Z,4.38
2022-07-28T08:13:00.465Z,4.22
2022-07-28T08:15:27.736Z,4.00
2022-07-28T08:17:54.978Z,3.88
2022-07-28T08:20:22.759Z,3.97
2022-07-28T08:22:50.751Z,3.92
2022-07-28T08:25:18.367Z,3.92
2022-07-28T08:27:45.573Z,3.85
2022-07-28T08:30:14.908Z,4.50
2022-07-28T08:32:44.236Z,4.10
2022-07-28T08:35:34.298Z,4.97
2022-07-28T08:38:06.166Z,4.93
2022-07-28T08:40:33.759Z,4.97
2022-07-28T08:43:26.164Z,5.13
2022-07-28T08:45:58.029Z,31.33
2022-07-28T08:48:25.835Z,7.15
2022-07-28T08:50:53.278Z,4.95
2022-07-28T08:53:21.344Z,5.22
2022-07-28T08:55:49.484Z,5.60
2022-07-28T08:58:16.886Z,4.68
2022-07-28T09:00:44.320Z,6.03
2022-07-28T09:03:12.504Z,5.10
2022-07-28T09:05:42.086Z,5.57
2022-07-28T09:08:09.375Z,4.63
2022-07-28T09:10:36.611Z,4.43
2022-07-28T09:13:03.836Z,4.93
2022-07-28T09:15:32.685Z,4.20
2022-07-28T09:17:59.964Z,5.20
2022-07-28T09:20:27.648Z,4.70
2022-07-28T09:23:02.727Z,4.50
2022-07-28T09:25:30.232Z,4.13
2022-07-28T09:28:07.201Z,5.03
2022-07-28T09:30:36.637Z,4.28
2022-07-28T09:33:40.899Z,5.10
2022-07-28T09:36:16.719Z,4.30
2022-07-28T09:38:44.037Z,4.38
2022-07-28T09:41:11.432Z,4.40
2022-07-28T09:43:43.287Z,4.10
2022-07-28T09:46:11.977Z,4.20
2022-07-28T09:48:54.382Z,4.13
2022-07-28T09:51:30.509Z,4.22
2022-07-28T09:54:14.968Z,4.22
2022-07-28T09:56:44.274Z,4.65
2022-07-28T09:59:14.566Z,4.05
2022-07-28T10:01:52.631Z,4.40
2022-07-28T10:04:37.521Z,4.78
2022-07-28T10:07:17.126Z,5.15
2022-07-28T10:09:44.616Z,4.10
2022-07-28T10:12:15.376Z,4.18
2022-07-28T10:14:42.603Z,3.85
2022-07-28T10:17:10.611Z,3.92
2022-07-28T10:19:38.676Z,4.60
2022-07-28T10:22:05.928Z,3.65
2022-07-28T10:24:33.427Z,3.30
2022-07-28T10:27:00.735Z,3.63
2022-07-28T10:29:28.192Z,3.47
2022-07-28T10:31:57.904Z,3.58
2022-07-28T10:34:31.896Z,3.92
2022-07-28T10:36:59.870Z,4.40
2022-07-28T10:39:31.840Z,4.20
2022-07-28T10:41:59.075Z,3.70
2022-07-28T10:44:26.298Z,3.53
2022-07-28T10:46:53.738Z,3.60
2022-07-28T10:49:21.210Z,3.28
2022-07-28T10:52:04.949Z,2.90
2022-07-28T10:54:47.261Z,3.58
2022-07-28T10:57:14.587Z,3.17
2022-07-28T10:59:58.006Z,3.90
2022-07-28T11:02:47.905Z,3.40
2022-07-28T11:05:28.850Z,3.47
2022-07-28T11:07:57.032Z,3.30
2022-07-28T11:10:24.345Z,3.38
2022-07-28T11:12:55.719Z,3.65
2022-07-28T11:15:35.661Z,2.85
2022-07-28T11:18:06.195Z,3.10
2022-07-28T11:21:00.363Z,3.75
2022-07-28T11:23:53.115Z,3.57
2022-07-28T11:26:20.828Z,3.00
2022-07-28T11:29:00.342Z,2.70
2022-07-28T11:31:48.676Z,2.83
2022-07-28T11:34:23.764Z,2.92
2022-07-28T11:37:06.629Z,2.70
2022-07-28T11:39:43.902Z,2.63
2022-07-28T11:42:28.426Z,2.92
2022-07-28T11:44:56.543Z,2.78
2022-07-28T11:47:25.203Z,2.85
2022-07-28T11:50:15.047Z,2.85
2022-07-28T11:53:00.038Z,2.88
2022-07-28T11:58:25.505Z,2.80
2022-07-28T12:01:17.241Z,2.63
2022-07-28T12:03:50.210Z,2.70
2022-07-28T12:06:27.173Z,2.70
2022-07-28T12:09:02.056Z,2.28
2022-07-28T12:11:37.079Z,2.55
2022-07-28T12:14:13.068Z,2.47
2022-07-28T12:16:42.089Z,2.58
2022-07-28T12:19:10.961Z,2.40
2022-07-28T12:21:46.452Z,2.40
2022-07-28T12:24:18.763Z,2.70
2022-07-28T12:26:49.687Z,2.60
2022-07-28T12:29:19.639Z,2.60
2022-07-28T12:31:55.665Z,2.30
2022-07-28T12:34:28.993Z,2.05
2022-07-28T12:36:57.960Z,2.17
2022-07-28T12:39:26.099Z,2.50
2022-07-28T12:42:03.976Z,2.70
2022-07-28T12:44:38.004Z,2.67
2022-07-28T12:47:08.027Z,2.65
2022-07-28T12:49:35.936Z,2.30
2022-07-28T12:52:21.842Z,2.50
2022-07-28T12:54:50.496Z,2.40
2022-07-28T12:57:47.961Z,2.47
2022-07-28T13:00:21.867Z,2.30
2022-07-28T13:02:50.376Z,2.60
2022-07-28T13:05:32.368Z,2.30
2022-07-28T13:08:02.180Z,2.30
2022-07-28T13:10:30.252Z,2.30
2022-07-28T13:13:06.005Z,2.45
2022-07-28T13:15:33.560Z,2.35
2022-07-28T13:18:01.054Z,2.33
2022-07-28T13:20:28.381Z,2.72
2022-07-28T13:22:57.222Z,2.38
2022-07-28T13:25:24.628Z,2.65
2022-07-28T13:27:55.470Z,2.25
2022-07-28T13:30:23.723Z,2.38
2022-07-28T13:32:51.459Z,2.40
2022-07-28T13:35:21.157Z,2.45
2022-07-28T13:37:48.879Z,2.10
2022-07-28T13:40:16.134Z,2.42
2022-07-28T13:42:52.557Z,2.25
2022-07-28T13:45:23.873Z,2.45
2022-07-28T13:47:52.310Z,2.05
2022-07-28T13:50:20.863Z,2.38
2022-07-28T13:52:48.609Z,2.42
2022-07-28T13:55:17.738Z,2.10
2022-07-28T13:57:49.207Z,2.22
2022-07-28T14:00:18.018Z,2.03
2022-07-28T14:02:48.747Z,2.42
2022-07-28T14:05:16.207Z,1.80
2022-07-28T14:07:48.813Z,2.33
2022-07-28T14:10:17.747Z,2.20
2022-07-28T14:12:46.231Z,2.30
2022-07-28T14:15:14.335Z,2.03
2022-07-28T14:17:43.510Z,1.95
2022-07-28T14:20:12.896Z,2.05
2022-07-28T14:22:40.295Z,2.15
2022-07-28T14:25:07.889Z,2.10
2022-07-28T14:27:35.243Z,2.22
2022-07-28T14:30:04.112Z,2.22
2022-07-28T14:32:32.148Z,2.40
2022-07-28T14:34:59.549Z,2.30
2022-07-28T14:37:26.951Z,2.30
2022-07-28T14:39:54.158Z,2.15
2022-07-28T14:42:21.407Z,2.80
2022-07-28T14:44:48.705Z,2.40
2022-07-28T14:47:17.599Z,2.38
2022-07-28T14:49:58.293Z,2.70
2022-07-28T14:52:26.825Z,2.60
2022-07-28T14:54:57.263Z,2.10
2022-07-28T14:57:48.284Z,2.10
2022-07-28T15:00:13.767Z,2.25
2022-07-28T15:02:41.388Z,2.00
2022-07-28T15:05:09.327Z,2.10
2022-07-28T15:07:36.650Z,1.85
2022-07-28T15:10:04.891Z,2.17
2022-07-28T15:12:32.148Z,2.40
2022-07-28T15:14:59.440Z,2.00
2022-07-28T15:17:26.667Z,2.40
2022-07-28T15:19:54.132Z,2.40
2022-07-28T15:22:21.372Z,2.45
2022-07-28T15:24:53.747Z,2.40
2022-07-28T15:27:20.987Z,2.10
2022-07-28T15:29:50.417Z,2.28
2022-07-28T15:32:22.112Z,2.20
2022-07-28T15:34:55.673Z,2.30
2022-07-28T15:37:23.174Z,2.10
2022-07-28T15:39:50.543Z,1.95
2022-07-28T15:42:17.827Z,2.40
2022-07-28T15:44:45.159Z,1.90
2022-07-28T15:47:12.498Z,2.13
2022-07-28T15:49:39.750Z,2.42
2022-07-28T15:52:06.985Z,2.33
2022-07-28T15:54:34.228Z,2.20
2022-07-28T15:57:01.457Z,2.13
2022-07-28T15:59:49.414Z,2.20
2022-07-28T16:02:17.425Z,2.10
2022-07-28T16:04:51.534Z,2.25
2022-07-28T16:07:28.129Z,2.40
2022-07-28T16:09:55.654Z,2.13
2022-07-28T16:12:25.139Z,2.08
2022-07-28T16:14:53.837Z,2.45
2022-07-28T16:17:22.170Z,2.35
2022-07-28T16:19:50.996Z,1.90
2022-07-28T16:22:18.898Z,2.33
2022-07-28T16:24:46.206Z,2.13
2022-07-28T16:27:13.876Z,2.00
2022-07-28T16:29:41.104Z,2.20
2022-07-28T16:32:08.429Z,2.28
2022-07-28T16:34:35.958Z,2.10
2022-07-28T16:37:05.702Z,2.25
2022-07-28T16:39:34.200Z,2.38
2022-07-28T16:42:02.624Z,2.35
2022-07-28T16:44:30.141Z,2.10
2022-07-28T16:46:58.045Z,2.22
2022-07-28T16:49:25.443Z,1.90
2022-07-28T16:51:52.863Z,1.88
2022-07-28T16:54:20.535Z,1.65
2022-07-28T16:56:48.018Z,2.00
2022-07-28T16:59:15.279Z,2.10
2022-07-28T17:01:46.264Z,2.85
2022-07-28T17:04:15.281Z,1.92
2022-07-28T17:06:42.915Z,1.80
2022-07-28T17:09:10.812Z,1.80
2022-07-28T17:11:38.166Z,2.20
2022-07-28T17:14:05.447Z,2.30
2022-07-28T17:16:32.732Z,2.08
2022-07-28T17:19:00.148Z,2.20
2022-07-28T17:21:27.558Z,1.88
2022-07-28T17:23:54.796Z,2.05
2022-07-28T17:29:09.817Z,2.42
2022-07-28T17:31:38.368Z,2.10
2022-07-28T17:34:05.773Z,2.35
2022-07-28T17:36:35.285Z,2.08
2022-07-28T17:39:02.702Z,1.92
2022-07-28T17:41:30.831Z,1.73
2022-07-28T17:43:58.113Z,2.00
2022-07-28T17:46:26.456Z,2.05
2022-07-28T17:48:54.314Z,1.88
2022-07-28T17:51:21.856Z,2.17
2022-07-28T17:53:50.339Z,2.20
2022-07-28T17:56:18.544Z,2.20
2022-07-28T17:58:45.839Z,2.20
2022-07-28T18:01:13.870Z,1.98
2022-07-28T18:03:59.113Z,2.03
2022-07-28T18:06:34.931Z,2.30
2022-07-28T18:09:06.443Z,2.00
2022-07-28T18:11:37.751Z,2.20
2022-07-28T18:14:24.328Z,2.10
2022-07-28T18:16:51.666Z,2.40
2022-07-28T18:19:18.916Z,2.00
2022-07-28T18:21:46.146Z,2.28
2022-07-28T18:24:13.717Z,2.30
2022-07-28T18:26:41.202Z,2.13
2022-07-28T18:29:08.541Z,2.22
2022-07-28T18:31:35.992Z,2.20
2022-07-28T18:34:03.535Z,2.35
2022-07-28T18:36:31.784Z,2.20
2022-07-28T18:38:59.072Z,1.88
2022-07-28T18:41:26.496Z,2.20
2022-07-28T18:43:53.744Z,2.10
2022-07-28T18:46:21.066Z,2.10
2022-07-28T18:48:57.054Z,2.45
2022-07-28T18:51:25.660Z,2.50
2022-07-28T18:53:53.044Z,2.50
2022-07-28T18:56:20.301Z,2.30
2022-07-28T18:58:47.553Z,2.28
2022-07-28T19:01:14.871Z,2.47
2022-07-28T19:03:42.195Z,2.22
2022-07-28T19:06:10.544Z,2.70
2022-07-28T19:08:37.763Z,2.45
2022-07-28T19:11:04.985Z,2.42
2022-07-28T19:13:32.234Z,2.47
2022-07-28T19:15:59.522Z,2.40
2022-07-28T19:18:26.836Z,2.38
2022-07-28T19:20:54.146Z,2.60
2022-07-28T19:23:21.388Z,2.50
2022-07-28T19:25:48.624Z,2.30
2022-07-28T19:28:16.155Z,2.80
2022-07-28T19:30:44.972Z,2.40
2022-07-28T19:33:15.901Z,2.50
2022-07-28T19:35:46.159Z,2.47
2022-07-28T19:38:13.523Z,2.75
2022-07-28T19:40:42.964Z,2.70
2022-07-28T19:43:10.506Z,2.53
2022-07-28T19:45:39.121Z,2.80
2022-07-28T19:48:07.414Z,3.22
2022-07-28T19:50:36.200Z,3.05
2022-07-28T19:53:03.615Z,3.00
2022-07-28T19:55:35.003Z,3.03
2022-07-28T19:58:03.691Z,3.42
2022-07-28T20:00:30.921Z,2.90
2022-07-28T20:02:58.213Z,2.90
2022-07-28T20:05:25.614Z,3.45
2022-07-28T20:07:53.020Z,2.85
2022-07-28T20:10:20.685Z,3.47
2022-07-28T20:12:48.512Z,3.45
2022-07-28T20:15:15.797Z,3.20
2022-07-28T20:17:43.098Z,3.20
2022-07-28T20:20:12.359Z,2.97
2022-07-28T20:22:42.813Z,3.30
2022-07-28T20:25:10.662Z,3.25
2022-07-28T20:27:39.934Z,3.28
2022-07-28T20:30:11.799Z,3.60
2022-07-28T20:32:40.322Z,3.50
2022-07-28T20:35:08.996Z,3.33
2022-07-28T20:37:37.700Z,3.58
2022-07-28T20:40:06.350Z,3.42
2022-07-28T20:42:33.748Z,3.60
2022-07-28T20:45:00.965Z,3.47
2022-07-28T20:47:28.294Z,3.38
2022-07-28T20:49:55.648Z,3.30
2022-07-28T20:52:23.435Z,3.20
2022-07-28T20:54:54.213Z,3.38
2022-07-28T20:57:22.626Z,3.35
2022-07-28T20:59:51.972Z,3.20
2022-07-28T21:02:20.277Z,3.22
2022-07-28T21:04:50.278Z,3.60
2022-07-28T21:08:00.516Z,3.03
2022-07-28T21:10:07.098Z,3.17
2022-07-28T21:12:34.943Z,2.70
2022-07-28T21:15:02.600Z,2.47
2022-07-28T21:17:29.845Z,2.53
2022-07-28T21:19:57.120Z,2.65
2022-07-28T21:22:24.351Z,2.60
2022-07-28T21:24:55.442Z,2.88
2022-07-28T21:27:23.430Z,2.75
2022-07-28T21:32:18.190Z,2.50
2022-07-28T21:34:45.450Z,2.20
2022-07-28T21:37:13.647Z,2.40
2022-07-28T21:39:40.930Z,2.60
2022-07-28T21:42:09.338Z,2.53
2022-07-28T21:44:37.373Z,2.20
2022-07-28T21:47:04.658Z,1.83
2022-07-28T21:49:32.356Z,1.92
2022-07-28T21:51:59.992Z,1.77
2022-07-28T21:54:27.339Z,2.03
2022-07-28T21:56:54.605Z,1.67
2022-07-28T21:59:21.919Z,1.63
2022-07-28T22:01:49.241Z,1.50
2022-07-28T22:04:17.096Z,1.50
2022-07-28T22:06:46.462Z,1.10
2022-07-28T22:09:14.908Z,1.33
2022-07-28T22:11:42.495Z,1.40
2022-07-28T22:14:09.832Z,1.10
2022-07-28T22:16:37.202Z,1.00
2022-07-28T22:19:04.556Z,1.25
2022-07-28T22:21:31.870Z,1.00
2022-07-28T22:23:59.114Z,0.85
2022-07-28T22:26:26.501Z,0.88
2022-07-28T22:28:53.791Z,1.00
2022-07-28T22:31:21.188Z,1.20
2022-07-28T22:33:48.439Z,1.10
2022-07-28T22:36:15.669Z,1.25
2022-07-28T22:38:42.885Z,1.27
2022-07-28T22:41:10.283Z,1.30
2022-07-28T22:43:37.865Z,1.50
2022-07-28T22:46:05.192Z,1.48
2022-07-28T22:48:32.507Z,1.50
2022-07-28T22:50:59.812Z,1.73
2022-07-28T22:53:27.055Z,1.50
2022-07-28T22:55:54.915Z,1.70
2022-07-28T22:58:22.140Z,1.77
2022-07-28T23:00:49.431Z,1.30
2022-07-28T23:03:18.939Z,1.63
2022-07-28T23:05:46.204Z,1.30
2022-07-28T23:08:13.430Z,1.52
2022-07-28T23:10:40.692Z,1.30
2022-07-28T23:13:07.917Z,1.60
2022-07-28T23:15:40.557Z,1.60
2022-07-28T23:18:13.947Z,1.60
2022-07-28T23:20:41.370Z,1.60
2022-07-28T23:23:09.080Z,1.33
2022-07-28T23:25:36.774Z,1.85
2022-07-28T23:28:04.234Z,1.85
2022-07-28T23:30:31.467Z,1.73
2022-07-28T23:32:58.691Z,1.90
2022-07-28T23:35:25.919Z,1.60
2022-07-28T23:37:53.157Z,1.30
2022-07-28T23:40:20.400Z,1.50
2022-07-28T23:42:48.526Z,1.70
2022-07-28T23:45:15.727Z,1.50
2022-07-28T23:47:42.970Z,1.33
2022-07-28T23:50:10.284Z,1.52
2022-07-28T23:52:37.521Z,1.63
2022-07-28T23:55:05.240Z,1.70
2022-07-28T23:57:32.472Z,1.75
